sensor_id;sensor_type;location;lat;lon;timestamp;temperature;humidity
44487;DHT22;30191;50.908;6.962;2022-11-20T00:00:03;6.40;99.90
44487;DHT22;30191;50.908;6.962;2022-11-20T00:02:29;6.40;99.90
44487;DHT22;30191;50.908;6.962;2022-11-20T00:04:55;6.40;99.90
44487;DHT22;30191;50.908;6.962;2022-11-20T00:07:20;6.40;99.90
44487;DHT22;30191;50.908;6.962;2022-11-20T00:09:46;6.40;99.90
44487;DHT22;30191;50.908;6.962;2022-11-20T00:12:12;6.40;99.90
44487;DHT22;30191;50.908;6.962;2022-11-20T00:14:37;6.40;99.90
44487;DHT22;30191;50.908;6.962;2022-11-20T00:17:03;6.40;99.90
44487;DHT22;30191;50.908;6.962;2022-11-20T00:19:28;6.40;99.90
44487;DHT22;30191;50.908;6.962;2022-11-20T00:21:57;6.30;99.90
44487;DHT22;30191;50.908;6.962;2022-11-20T00:24:22;6.30;99.90
44487;DHT22;30191;50.908;6.962;2022-11-20T00:26:48;6.30;99.90
44487;DHT22;30191;50.908;6.962;2022-11-20T00:29:14;6.30;99.90
44487;DHT22;30191;50.908;6.962;2022-11-20T00:31:42;6.30;99.90
44487;DHT22;30191;50.908;6.962;2022-11-20T00:34:09;6.30;99.90
44487;DHT22;30191;50.908;6.962;2022-11-20T00:36:35;6.30;99.90
44487;DHT22;30191;50.908;6.962;2022-11-20T00:39:01;6.20;99.90
44487;DHT22;30191;50.908;6.962;2022-11-20T00:41:29;6.20;99.90
44487;DHT22;30191;50.908;6.962;2022-11-20T00:43:55;6.20;99.90
44487;DHT22;30191;50.908;6.962;2022-11-20T00:46:22;6.30;99.90
44487;DHT22;30191;50.908;6.962;2022-11-20T00:48:49;6.30;99.90
44487;DHT22;30191;50.908;6.962;2022-11-20T00:51:18;6.30;99.90
44487;DHT22;30191;50.908;6.962;2022-11-20T00:53:44;6.20;99.90
44487;DHT22;30191;50.908;6.962;2022-11-20T00:56:16;6.30;99.90
44487;DHT22;30191;50.908;6.962;2022-11-20T00:58:44;6.30;99.90
44487;DHT22;30191;50.908;6.962;2022-11-20T01:01:12;6.30;99.90
44487;DHT22;30191;50.908;6.962;2022-11-20T01:03:40;6.30;99.90
44487;DHT22;30191;50.908;6.962;2022-11-20T01:06:13;6.30;99.90
44487;DHT22;30191;50.908;6.962;2022-11-20T01:08:39;6.30;99.90
44487;DHT22;30191;50.908;6.962;2022-11-20T01:11:11;6.20;99.90
44487;DHT22;30191;50.908;6.962;2022-11-20T01:13:37;6.20;99.90
44487;DHT22;30191;50.908;6.962;2022-11-20T01:18:30;6.30;99.90
44487;DHT22;30191;50.908;6.962;2022-11-20T01:20:59;6.20;99.90
44487;DHT22;30191;50.908;6.962;2022-11-20T01:23:25;6.30;99.90
44487;DHT22;30191;50.908;6.962;2022-11-20T01:25:51;6.30;99.90
44487;DHT22;30191;50.908;6.962;2022-11-20T01:28:16;6.30;99.90
44487;DHT22;30191;50.908;6.962;2022-11-20T01:30:42;6.20;99.90
44487;DHT22;30191;50.908;6.962;2022-11-20T01:33:07;6.30;99.90
44487;DHT22;30191;50.908;6.962;2022-11-20T01:35:33;6.30;99.90
44487;DHT22;30191;50.908;6.962;2022-11-20T01:37:59;6.30;99.90
44487;DHT22;30191;50.908;6.962;2022-11-20T01:40:24;6.30;99.90
44487;DHT22;30191;50.908;6.962;2022-11-20T01:42:58;6.20;99.90
44487;DHT22;30191;50.908;6.962;2022-11-20T01:48:22;6.20;99.90
44487;DHT22;30191;50.908;6.962;2022-11-20T01:50:50;6.30;99.90
44487;DHT22;30191;50.908;6.962;2022-11-20T01:53:18;6.30;99.90
44487;DHT22;30191;50.908;6.962;2022-11-20T01:55:51;6.30;99.90
44487;DHT22;30191;50.908;6.962;2022-11-20T01:58:21;6.30;99.90
44487;DHT22;30191;50.908;6.962;2022-11-20T02:00:47;6.30;99.90
44487;DHT22;30191;50.908;6.962;2022-11-20T02:03:16;6.30;99.90
44487;DHT22;30191;50.908;6.962;2022-11-20T02:08:28;6.20;99.90
44487;DHT22;30191;50.908;6.962;2022-11-20T02:10:54;6.20;99.90
44487;DHT22;30191;50.908;6.962;2022-11-20T02:13:20;6.10;99.90
44487;DHT22;30191;50.908;6.962;2022-11-20T02:16:04;6.10;99.90
44487;DHT22;30191;50.908;6.962;2022-11-20T02:18:31;6.10;99.90
44487;DHT22;30191;50.908;6.962;2022-11-20T02:26:31;6.10;99.90
44487;DHT22;30191;50.908;6.962;2022-11-20T02:28:59;6.10;99.90
44487;DHT22;30191;50.908;6.962;2022-11-20T02:31:25;6.10;99.90
44487;DHT22;30191;50.908;6.962;2022-11-20T02:33:56;6.10;99.90
44487;DHT22;30191;50.908;6.962;2022-11-20T02:36:21;6.10;99.90
44487;DHT22;30191;50.908;6.962;2022-11-20T02:38:49;6.10;99.90
44487;DHT22;30191;50.908;6.962;2022-11-20T02:41:15;6.10;99.90
44487;DHT22;30191;50.908;6.962;2022-11-20T02:43:41;6.10;99.90
44487;DHT22;30191;50.908;6.962;2022-11-20T02:46:07;6.10;99.90
44487;DHT22;30191;50.908;6.962;2022-11-20T02:48:33;6.20;99.90
44487;DHT22;30191;50.908;6.962;2022-11-20T02:50:59;6.20;99.90
44487;DHT22;30191;50.908;6.962;2022-11-20T02:53:25;6.20;99.90
44487;DHT22;30191;50.908;6.962;2022-11-20T02:55:50;6.20;99.90
44487;DHT22;30191;50.908;6.962;2022-11-20T02:58:16;6.20;99.90
44487;DHT22;30191;50.908;6.962;2022-11-20T03:00:42;6.20;99.90
44487;DHT22;30191;50.908;6.962;2022-11-20T03:03:07;6.20;99.90
44487;DHT22;30191;50.908;6.962;2022-11-20T03:05:33;6.20;99.90
44487;DHT22;30191;50.908;6.962;2022-11-20T03:07:58;6.20;99.90
44487;DHT22;30191;50.908;6.962;2022-11-20T03:10:24;6.20;99.90
44487;DHT22;30191;50.908;6.962;2022-11-20T03:12:56;6.20;99.90
44487;DHT22;30191;50.908;6.962;2022-11-20T03:15:25;6.10;99.90
44487;DHT22;30191;50.908;6.962;2022-11-20T03:17:54;6.10;99.90
44487;DHT22;30191;50.908;6.962;2022-11-20T03:20:21;6.10;99.90
44487;DHT22;30191;50.908;6.962;2022-11-20T03:22:46;6.10;99.90
44487;DHT22;30191;50.908;6.962;2022-11-20T03:25:12;6.10;99.90
44487;DHT22;30191;50.908;6.962;2022-11-20T03:27:37;6.10;99.90
44487;DHT22;30191;50.908;6.962;2022-11-20T03:30:04;6.10;99.90
44487;DHT22;30191;50.908;6.962;2022-11-20T03:32:30;6.10;99.90
44487;DHT22;30191;50.908;6.962;2022-11-20T03:34:56;6.10;99.90
44487;DHT22;30191;50.908;6.962;2022-11-20T03:37:22;6.00;99.90
44487;DHT22;30191;50.908;6.962;2022-11-20T03:39:48;6.00;99.90
44487;DHT22;30191;50.908;6.962;2022-11-20T03:42:13;5.90;99.90
44487;DHT22;30191;50.908;6.962;2022-11-20T03:44:57;5.90;99.90
44487;DHT22;30191;50.908;6.962;2022-11-20T03:47:23;6.00;99.90
44487;DHT22;30191;50.908;6.962;2022-11-20T03:49:49;6.00;99.90
44487;DHT22;30191;50.908;6.962;2022-11-20T03:52:14;5.90;99.90
44487;DHT22;30191;50.908;6.962;2022-11-20T03:54:40;5.90;99.90
44487;DHT22;30191;50.908;6.962;2022-11-20T03:57:06;5.90;99.90
44487;DHT22;30191;50.908;6.962;2022-11-20T03:59:31;5.80;99.90
44487;DHT22;30191;50.908;6.962;2022-11-20T04:01:57;5.80;99.90
44487;DHT22;30191;50.908;6.962;2022-11-20T04:04:23;5.80;99.90
44487;DHT22;30191;50.908;6.962;2022-11-20T04:06:48;5.80;99.90
44487;DHT22;30191;50.908;6.962;2022-11-20T04:09:14;5.90;99.90
44487;DHT22;30191;50.908;6.962;2022-11-20T04:11:41;5.90;99.90
44487;DHT22;30191;50.908;6.962;2022-11-20T04:14:12;6.00;99.90
44487;DHT22;30191;50.908;6.962;2022-11-20T04:16:38;6.00;99.90
44487;DHT22;30191;50.908;6.962;2022-11-20T04:19:06;6.10;99.90
44487;DHT22;30191;50.908;6.962;2022-11-20T04:21:34;6.10;99.90
44487;DHT22;30191;50.908;6.962;2022-11-20T04:24:00;6.10;99.90
44487;DHT22;30191;50.908;6.962;2022-11-20T04:26:27;6.10;99.90
44487;DHT22;30191;50.908;6.962;2022-11-20T04:28:53;6.10;99.90
44487;DHT22;30191;50.908;6.962;2022-11-20T04:31:22;6.00;99.90
44487;DHT22;30191;50.908;6.962;2022-11-20T04:33:48;6.00;99.90
44487;DHT22;30191;50.908;6.962;2022-11-20T04:36:25;6.00;99.90
44487;DHT22;30191;50.908;6.962;2022-11-20T04:38:52;6.00;99.90
44487;DHT22;30191;50.908;6.962;2022-11-20T04:41:21;6.00;99.90
44487;DHT22;30191;50.908;6.962;2022-11-20T04:43:55;6.00;99.90
44487;DHT22;30191;50.908;6.962;2022-11-20T04:46:27;6.00;99.90
44487;DHT22;30191;50.908;6.962;2022-11-20T04:48:53;6.00;99.90
44487;DHT22;30191;50.908;6.962;2022-11-20T04:51:19;5.90;99.90
44487;DHT22;30191;50.908;6.962;2022-11-20T04:53:44;5.90;99.90
44487;DHT22;30191;50.908;6.962;2022-11-20T04:56:11;5.90;99.90
44487;DHT22;30191;50.908;6.962;2022-11-20T04:58:37;5.90;99.90
44487;DHT22;30191;50.908;6.962;2022-11-20T05:01:05;5.70;99.90
44487;DHT22;30191;50.908;6.962;2022-11-20T05:03:31;5.70;99.90
44487;DHT22;30191;50.908;6.962;2022-11-20T05:06:00;5.70;99.90
44487;DHT22;30191;50.908;6.962;2022-11-20T05:08:26;5.80;99.90
44487;DHT22;30191;50.908;6.962;2022-11-20T05:10:52;5.80;99.90
44487;DHT22;30191;50.908;6.962;2022-11-20T05:13:18;5.80;99.90
44487;DHT22;30191;50.908;6.962;2022-11-20T05:15:43;5.80;99.90
44487;DHT22;30191;50.908;6.962;2022-11-20T05:18:09;5.90;99.90
44487;DHT22;30191;50.908;6.962;2022-11-20T05:20:35;6.00;99.90
44487;DHT22;30191;50.908;6.962;2022-11-20T05:23:01;6.00;99.90
44487;DHT22;30191;50.908;6.962;2022-11-20T05:25:27;6.00;99.90
44487;DHT22;30191;50.908;6.962;2022-11-20T05:27:53;6.00;99.90
44487;DHT22;30191;50.908;6.962;2022-11-20T05:30:19;6.00;99.90
44487;DHT22;30191;50.908;6.962;2022-11-20T05:32:44;6.00;99.90
44487;DHT22;30191;50.908;6.962;2022-11-20T05:35:10;6.00;99.90
44487;DHT22;30191;50.908;6.962;2022-11-20T05:37:36;6.10;99.90
44487;DHT22;30191;50.908;6.962;2022-11-20T05:40:01;6.00;99.90
44487;DHT22;30191;50.908;6.962;2022-11-20T05:42:30;5.90;99.90
44487;DHT22;30191;50.908;6.962;2022-11-20T05:45:00;5.90;99.90
44487;DHT22;30191;50.908;6.962;2022-11-20T05:47:27;6.00;99.90
44487;DHT22;30191;50.908;6.962;2022-11-20T05:49:54;6.00;99.90
44487;DHT22;30191;50.908;6.962;2022-11-20T05:52:20;6.00;99.90
44487;DHT22;30191;50.908;6.962;2022-11-20T05:54:45;6.00;99.90
44487;DHT22;30191;50.908;6.962;2022-11-20T05:57:11;5.90;99.90
44487;DHT22;30191;50.908;6.962;2022-11-20T05:59:37;5.90;99.90
44487;DHT22;30191;50.908;6.962;2022-11-20T06:02:02;6.00;99.90
44487;DHT22;30191;50.908;6.962;2022-11-20T06:04:28;6.10;99.90
44487;DHT22;30191;50.908;6.962;2022-11-20T06:06:54;6.00;99.90
44487;DHT22;30191;50.908;6.962;2022-11-20T06:09:19;6.00;99.90
44487;DHT22;30191;50.908;6.962;2022-11-20T06:11:45;6.10;99.90
44487;DHT22;30191;50.908;6.962;2022-11-20T06:14:11;6.10;99.90
44487;DHT22;30191;50.908;6.962;2022-11-20T06:16:37;6.10;99.90
44487;DHT22;30191;50.908;6.962;2022-11-20T06:19:02;6.10;99.90
44487;DHT22;30191;50.908;6.962;2022-11-20T06:21:28;6.10;99.90
44487;DHT22;30191;50.908;6.962;2022-11-20T06:23:54;6.10;99.90
44487;DHT22;30191;50.908;6.962;2022-11-20T06:26:21;6.10;99.90
44487;DHT22;30191;50.908;6.962;2022-11-20T06:28:48;6.10;99.90
44487;DHT22;30191;50.908;6.962;2022-11-20T06:31:16;6.10;99.90
44487;DHT22;30191;50.908;6.962;2022-11-20T06:33:43;6.10;99.90
44487;DHT22;30191;50.908;6.962;2022-11-20T06:36:10;6.10;99.90
44487;DHT22;30191;50.908;6.962;2022-11-20T06:38:36;6.10;99.90
44487;DHT22;30191;50.908;6.962;2022-11-20T06:41:03;6.10;99.90
44487;DHT22;30191;50.908;6.962;2022-11-20T06:43:29;6.10;99.90
44487;DHT22;30191;50.908;6.962;2022-11-20T06:45:56;6.10;99.90
44487;DHT22;30191;50.908;6.962;2022-11-20T06:48:23;6.00;99.90
44487;DHT22;30191;50.908;6.962;2022-11-20T06:50:49;6.00;99.90
44487;DHT22;30191;50.908;6.962;2022-11-20T06:53:15;6.00;99.90
44487;DHT22;30191;50.908;6.962;2022-11-20T06:55:45;6.00;99.90
44487;DHT22;30191;50.908;6.962;2022-11-20T06:58:13;6.00;99.90
44487;DHT22;30191;50.908;6.962;2022-11-20T07:00:38;6.00;99.90
44487;DHT22;30191;50.908;6.962;2022-11-20T07:03:05;6.10;99.90
44487;DHT22;30191;50.908;6.962;2022-11-20T07:05:31;6.20;99.90
44487;DHT22;30191;50.908;6.962;2022-11-20T07:07:57;6.20;99.90
44487;DHT22;30191;50.908;6.962;2022-11-20T07:10:23;6.20;99.90
44487;DHT22;30191;50.908;6.962;2022-11-20T07:12:50;6.10;99.90
44487;DHT22;30191;50.908;6.962;2022-11-20T07:15:17;6.10;99.90
44487;DHT22;30191;50.908;6.962;2022-11-20T07:17:42;6.10;99.90
44487;DHT22;30191;50.908;6.962;2022-11-20T07:20:09;6.00;99.90
44487;DHT22;30191;50.908;6.962;2022-11-20T07:22:34;6.10;99.90
44487;DHT22;30191;50.908;6.962;2022-11-20T07:25:00;6.10;99.90
44487;DHT22;30191;50.908;6.962;2022-11-20T07:27:27;6.20;99.90
44487;DHT22;30191;50.908;6.962;2022-11-20T07:29:53;6.20;99.90
44487;DHT22;30191;50.908;6.962;2022-11-20T07:32:18;6.20;99.90
44487;DHT22;30191;50.908;6.962;2022-11-20T07:34:44;6.20;99.90
44487;DHT22;30191;50.908;6.962;2022-11-20T07:37:10;6.20;99.90
44487;DHT22;30191;50.908;6.962;2022-11-20T07:39:35;6.10;99.90
44487;DHT22;30191;50.908;6.962;2022-11-20T07:42:01;6.20;99.90
44487;DHT22;30191;50.908;6.962;2022-11-20T07:44:27;6.20;99.90
44487;DHT22;30191;50.908;6.962;2022-11-20T07:46:52;6.20;99.90
44487;DHT22;30191;50.908;6.962;2022-11-20T07:49:18;6.20;99.90
44487;DHT22;30191;50.908;6.962;2022-11-20T07:51:43;6.20;99.90
44487;DHT22;30191;50.908;6.962;2022-11-20T07:54:09;6.20;99.90
44487;DHT22;30191;50.908;6.962;2022-11-20T07:56:35;6.20;99.90
44487;DHT22;30191;50.908;6.962;2022-11-20T07:59:00;6.30;99.90
44487;DHT22;30191;50.908;6.962;2022-11-20T08:01:26;6.30;99.90
44487;DHT22;30191;50.908;6.962;2022-11-20T08:03:51;6.30;99.90
44487;DHT22;30191;50.908;6.962;2022-11-20T08:06:17;6.20;99.90
44487;DHT22;30191;50.908;6.962;2022-11-20T08:08:44;6.30;99.90
44487;DHT22;30191;50.908;6.962;2022-11-20T08:11:10;6.30;99.90
44487;DHT22;30191;50.908;6.962;2022-11-20T08:13:54;6.30;99.90
44487;DHT22;30191;50.908;6.962;2022-11-20T08:16:43;6.30;99.90
44487;DHT22;30191;50.908;6.962;2022-11-20T08:19:09;6.30;99.90
44487;DHT22;30191;50.908;6.962;2022-11-20T08:21:35;6.30;99.90
44487;DHT22;30191;50.908;6.962;2022-11-20T08:24:01;6.30;99.90
44487;DHT22;30191;50.908;6.962;2022-11-20T08:26:26;6.40;99.90
44487;DHT22;30191;50.908;6.962;2022-11-20T08:28:56;6.40;99.90
44487;DHT22;30191;50.908;6.962;2022-11-20T08:31:23;6.40;99.90
44487;DHT22;30191;50.908;6.962;2022-11-20T08:33:48;6.40;99.90
44487;DHT22;30191;50.908;6.962;2022-11-20T08:36:14;6.40;99.90
44487;DHT22;30191;50.908;6.962;2022-11-20T08:38:40;6.40;99.90
44487;DHT22;30191;50.908;6.962;2022-11-20T08:41:06;6.50;99.90
44487;DHT22;30191;50.908;6.962;2022-11-20T08:46:21;6.40;99.90
44487;DHT22;30191;50.908;6.962;2022-11-20T08:48:47;6.40;99.90
44487;DHT22;30191;50.908;6.962;2022-11-20T08:51:13;6.50;99.90
44487;DHT22;30191;50.908;6.962;2022-11-20T08:53:40;6.50;99.90
44487;DHT22;30191;50.908;6.962;2022-11-20T08:56:06;6.50;99.90
44487;DHT22;30191;50.908;6.962;2022-11-20T08:58:32;6.50;99.90
44487;DHT22;30191;50.908;6.962;2022-11-20T09:00:57;6.60;99.90
44487;DHT22;30191;50.908;6.962;2022-11-20T09:03:23;6.60;99.90
44487;DHT22;30191;50.908;6.962;2022-11-20T09:05:49;6.70;99.90
44487;DHT22;30191;50.908;6.962;2022-11-20T09:08:14;6.70;99.90
44487;DHT22;30191;50.908;6.962;2022-11-20T09:10:40;6.80;99.90
44487;DHT22;30191;50.908;6.962;2022-11-20T09:13:06;6.90;99.90
44487;DHT22;30191;50.908;6.962;2022-11-20T09:15:32;7.00;99.90
44487;DHT22;30191;50.908;6.962;2022-11-20T09:18:02;7.00;99.90
44487;DHT22;30191;50.908;6.962;2022-11-20T09:20:28;7.00;99.90
44487;DHT22;30191;50.908;6.962;2022-11-20T09:22:55;7.10;99.90
44487;DHT22;30191;50.908;6.962;2022-11-20T09:25:21;7.10;99.90
44487;DHT22;30191;50.908;6.962;2022-11-20T09:27:47;7.00;99.90
44487;DHT22;30191;50.908;6.962;2022-11-20T09:30:14;7.00;99.90
44487;DHT22;30191;50.908;6.962;2022-11-20T09:32:40;7.10;99.90
44487;DHT22;30191;50.908;6.962;2022-11-20T09:35:06;7.10;99.90
44487;DHT22;30191;50.908;6.962;2022-11-20T09:37:32;7.10;99.90
44487;DHT22;30191;50.908;6.962;2022-11-20T09:39:57;7.20;99.90
44487;DHT22;30191;50.908;6.962;2022-11-20T09:42:50;7.30;99.90
44487;DHT22;30191;50.908;6.962;2022-11-20T09:48:26;7.30;99.90
44487;DHT22;30191;50.908;6.962;2022-11-20T09:54:12;7.30;99.90
44487;DHT22;30191;50.908;6.962;2022-11-20T09:56:41;7.30;99.90
44487;DHT22;30191;50.908;6.962;2022-11-20T09:59:17;7.30;99.90
44487;DHT22;30191;50.908;6.962;2022-11-20T10:01:43;7.20;99.90
44487;DHT22;30191;50.908;6.962;2022-11-20T10:04:17;7.20;99.90
44487;DHT22;30191;50.908;6.962;2022-11-20T10:09:35;7.30;99.90
44487;DHT22;30191;50.908;6.962;2022-11-20T10:15:06;7.20;99.90
44487;DHT22;30191;50.908;6.962;2022-11-20T10:26:44;7.10;99.90
44487;DHT22;30191;50.908;6.962;2022-11-20T10:29:17;7.10;99.90
44487;DHT22;30191;50.908;6.962;2022-11-20T10:31:47;7.20;99.90
44487;DHT22;30191;50.908;6.962;2022-11-20T10:37:02;7.30;99.90
44487;DHT22;30191;50.908;6.962;2022-11-20T10:42:02;7.50;99.90
44487;DHT22;30191;50.908;6.962;2022-11-20T10:44:34;7.50;99.90
44487;DHT22;30191;50.908;6.962;2022-11-20T10:47:19;7.50;99.90
44487;DHT22;30191;50.908;6.962;2022-11-20T10:49:48;7.50;99.90
44487;DHT22;30191;50.908;6.962;2022-11-20T10:52:44;7.50;99.90
44487;DHT22;30191;50.908;6.962;2022-11-20T10:55:27;7.50;99.90
44487;DHT22;30191;50.908;6.962;2022-11-20T10:58:04;7.60;99.90
44487;DHT22;30191;50.908;6.962;2022-11-20T11:00:34;7.50;99.90
44487;DHT22;30191;50.908;6.962;2022-11-20T11:03:00;7.50;99.90
44487;DHT22;30191;50.908;6.962;2022-11-20T11:08:03;7.50;99.90
44487;DHT22;30191;50.908;6.962;2022-11-20T11:10:54;7.50;99.90
44487;DHT22;30191;50.908;6.962;2022-11-20T11:13:28;7.40;99.90
44487;DHT22;30191;50.908;6.962;2022-11-20T11:15:54;7.50;99.90
44487;DHT22;30191;50.908;6.962;2022-11-20T11:18:32;7.50;99.90
44487;DHT22;30191;50.908;6.962;2022-11-20T11:20:59;7.50;99.90
44487;DHT22;30191;50.908;6.962;2022-11-20T11:23:42;7.50;99.90
44487;DHT22;30191;50.908;6.962;2022-11-20T11:26:22;7.50;99.90
44487;DHT22;30191;50.908;6.962;2022-11-20T11:29:04;7.60;99.90
44487;DHT22;30191;50.908;6.962;2022-11-20T11:31:34;7.60;99.90
44487;DHT22;30191;50.908;6.962;2022-11-20T11:34:26;7.80;99.90
44487;DHT22;30191;50.908;6.962;2022-11-20T11:36:53;7.80;99.90
44487;DHT22;30191;50.908;6.962;2022-11-20T11:39:20;7.90;99.90
44487;DHT22;30191;50.908;6.962;2022-11-20T11:41:46;7.90;99.90
44487;DHT22;30191;50.908;6.962;2022-11-20T11:44:26;7.80;99.90
44487;DHT22;30191;50.908;6.962;2022-11-20T11:47:25;7.80;99.90
44487;DHT22;30191;50.908;6.962;2022-11-20T11:52:43;7.80;99.90
44487;DHT22;30191;50.908;6.962;2022-11-20T11:55:17;7.70;99.90
44487;DHT22;30191;50.908;6.962;2022-11-20T12:00:39;7.70;99.90
44487;DHT22;30191;50.908;6.962;2022-11-20T12:03:36;7.60;99.90
44487;DHT22;30191;50.908;6.962;2022-11-20T12:06:11;7.60;99.90
44487;DHT22;30191;50.908;6.962;2022-11-20T12:08:55;7.60;99.90
44487;DHT22;30191;50.908;6.962;2022-11-20T12:14:40;7.60;99.90
44487;DHT22;30191;50.908;6.962;2022-11-20T12:17:05;7.60;99.90
44487;DHT22;30191;50.908;6.962;2022-11-20T12:19:33;7.60;99.90
44487;DHT22;30191;50.908;6.962;2022-11-20T12:22:04;7.70;99.90
44487;DHT22;30191;50.908;6.962;2022-11-20T12:24:42;7.70;99.90
44487;DHT22;30191;50.908;6.962;2022-11-20T12:27:27;7.70;99.90
44487;DHT22;30191;50.908;6.962;2022-11-20T12:47:54;7.80;99.90
44487;DHT22;30191;50.908;6.962;2022-11-20T12:53:05;8.00;99.90
44487;DHT22;30191;50.908;6.962;2022-11-20T13:01:45;8.10;99.90
44487;DHT22;30191;50.908;6.962;2022-11-20T13:07:02;8.20;99.90
44487;DHT22;30191;50.908;6.962;2022-11-20T13:09:30;8.20;99.90
44487;DHT22;30191;50.908;6.962;2022-11-20T13:19:36;8.30;99.90
44487;DHT22;30191;50.908;6.962;2022-11-20T13:22:02;8.30;99.90
44487;DHT22;30191;50.908;6.962;2022-11-20T13:24:30;8.30;99.90
44487;DHT22;30191;50.908;6.962;2022-11-20T13:27:18;8.30;99.90
44487;DHT22;30191;50.908;6.962;2022-11-20T13:29:47;8.30;99.90
44487;DHT22;30191;50.908;6.962;2022-11-20T13:32:24;8.40;99.90
44487;DHT22;30191;50.908;6.962;2022-11-20T13:34:58;8.40;99.90
44487;DHT22;30191;50.908;6.962;2022-11-20T13:37:36;8.40;99.90
44487;DHT22;30191;50.908;6.962;2022-11-20T13:43:01;8.40;99.90
44487;DHT22;30191;50.908;6.962;2022-11-20T13:45:29;8.30;99.90
44487;DHT22;30191;50.908;6.962;2022-11-20T13:48:02;8.30;99.90
44487;DHT22;30191;50.908;6.962;2022-11-20T13:50:39;8.30;99.90
44487;DHT22;30191;50.908;6.962;2022-11-20T14:01:21;8.20;99.90
44487;DHT22;30191;50.908;6.962;2022-11-20T14:03:48;8.20;99.90
44487;DHT22;30191;50.908;6.962;2022-11-20T14:06:30;8.10;99.90
44487;DHT22;30191;50.908;6.962;2022-11-20T14:08:57;8.10;99.90
44487;DHT22;30191;50.908;6.962;2022-11-20T14:11:28;8.10;99.90
44487;DHT22;30191;50.908;6.962;2022-11-20T14:16:35;8.10;99.90
44487;DHT22;30191;50.908;6.962;2022-11-20T14:21:48;8.10;99.90
44487;DHT22;30191;50.908;6.962;2022-11-20T14:24:18;8.10;99.90
44487;DHT22;30191;50.908;6.962;2022-11-20T14:26:45;8.00;99.90
44487;DHT22;30191;50.908;6.962;2022-11-20T14:29:28;8.00;99.90
44487;DHT22;30191;50.908;6.962;2022-11-20T14:31:55;8.10;99.90
44487;DHT22;30191;50.908;6.962;2022-11-20T14:34:24;8.10;99.90
44487;DHT22;30191;50.908;6.962;2022-11-20T14:36:56;8.10;99.90
44487;DHT22;30191;50.908;6.962;2022-11-20T14:39:27;8.10;99.90
44487;DHT22;30191;50.908;6.962;2022-11-20T14:41:54;8.10;99.90
44487;DHT22;30191;50.908;6.962;2022-11-20T14:44:23;8.10;99.90
44487;DHT22;30191;50.908;6.962;2022-11-20T14:46:52;8.10;99.90
44487;DHT22;30191;50.908;6.962;2022-11-20T14:49:18;8.10;99.90
44487;DHT22;30191;50.908;6.962;2022-11-20T14:51:44;8.20;99.90
44487;DHT22;30191;50.908;6.962;2022-11-20T14:56:39;8.10;99.90
44487;DHT22;30191;50.908;6.962;2022-11-20T14:59:06;8.10;99.90
44487;DHT22;30191;50.908;6.962;2022-11-20T15:01:33;8.10;99.90
44487;DHT22;30191;50.908;6.962;2022-11-20T15:04:08;8.10;99.90
44487;DHT22;30191;50.908;6.962;2022-11-20T15:06:35;8.10;99.90
44487;DHT22;30191;50.908;6.962;2022-11-20T15:09:03;8.00;99.90
44487;DHT22;30191;50.908;6.962;2022-11-20T15:11:31;8.00;99.90
44487;DHT22;30191;50.908;6.962;2022-11-20T15:14:02;8.00;99.90
44487;DHT22;30191;50.908;6.962;2022-11-20T15:16:28;8.10;99.90
44487;DHT22;30191;50.908;6.962;2022-11-20T15:18:54;8.10;99.90
44487;DHT22;30191;50.908;6.962;2022-11-20T15:21:20;8.10;99.90
44487;DHT22;30191;50.908;6.962;2022-11-20T15:23:47;8.00;99.90
44487;DHT22;30191;50.908;6.962;2022-11-20T15:26:16;8.00;99.90
44487;DHT22;30191;50.908;6.962;2022-11-20T15:28:44;8.00;99.90
44487;DHT22;30191;50.908;6.962;2022-11-20T15:31:14;8.00;99.90
44487;DHT22;30191;50.908;6.962;2022-11-20T15:33:41;8.00;99.90
44487;DHT22;30191;50.908;6.962;2022-11-20T15:36:08;8.00;99.90
44487;DHT22;30191;50.908;6.962;2022-11-20T15:38:33;8.00;99.90
44487;DHT22;30191;50.908;6.962;2022-11-20T15:40:59;8.00;99.90
44487;DHT22;30191;50.908;6.962;2022-11-20T15:43:25;8.00;99.90
44487;DHT22;30191;50.908;6.962;2022-11-20T15:46:11;8.00;99.90
44487;DHT22;30191;50.908;6.962;2022-11-20T15:48:41;8.00;99.90
44487;DHT22;30191;50.908;6.962;2022-11-20T15:53:40;8.00;99.90
44487;DHT22;30191;50.908;6.962;2022-11-20T15:56:07;8.00;99.90
44487;DHT22;30191;50.908;6.962;2022-11-20T15:58:34;8.00;99.90
44487;DHT22;30191;50.908;6.962;2022-11-20T16:01:00;8.00;99.90
44487;DHT22;30191;50.908;6.962;2022-11-20T16:03:25;8.10;99.90
44487;DHT22;30191;50.908;6.962;2022-11-20T16:05:51;8.10;99.90
44487;DHT22;30191;50.908;6.962;2022-11-20T16:08:17;8.10;99.90
44487;DHT22;30191;50.908;6.962;2022-11-20T16:10:42;8.10;99.90
44487;DHT22;30191;50.908;6.962;2022-11-20T16:13:13;8.10;99.90
44487;DHT22;30191;50.908;6.962;2022-11-20T16:15:59;8.10;99.90
44487;DHT22;30191;50.908;6.962;2022-11-20T16:18:25;8.10;99.90
44487;DHT22;30191;50.908;6.962;2022-11-20T16:20:55;8.10;99.90
44487;DHT22;30191;50.908;6.962;2022-11-20T16:23:21;8.10;99.90
44487;DHT22;30191;50.908;6.962;2022-11-20T16:25:48;8.10;99.90
44487;DHT22;30191;50.908;6.962;2022-11-20T16:28:13;8.10;99.90
44487;DHT22;30191;50.908;6.962;2022-11-20T16:30:39;8.10;99.90
44487;DHT22;30191;50.908;6.962;2022-11-20T16:33:10;8.10;99.90
44487;DHT22;30191;50.908;6.962;2022-11-20T16:35:37;8.10;99.90
44487;DHT22;30191;50.908;6.962;2022-11-20T16:38:02;8.10;99.90
44487;DHT22;30191;50.908;6.962;2022-11-20T16:40:28;8.20;99.90
44487;DHT22;30191;50.908;6.962;2022-11-20T16:42:54;8.20;99.90
44487;DHT22;30191;50.908;6.962;2022-11-20T16:45:20;8.20;99.90
44487;DHT22;30191;50.908;6.962;2022-11-20T16:47:45;8.10;99.90
44487;DHT22;30191;50.908;6.962;2022-11-20T16:50:11;8.10;99.90
44487;DHT22;30191;50.908;6.962;2022-11-20T16:52:37;8.10;99.90
44487;DHT22;30191;50.908;6.962;2022-11-20T16:55:03;8.20;99.90
44487;DHT22;30191;50.908;6.962;2022-11-20T16:57:29;8.20;99.90
44487;DHT22;30191;50.908;6.962;2022-11-20T16:59:57;8.20;99.90
44487;DHT22;30191;50.908;6.962;2022-11-20T17:02:23;8.20;99.90
44487;DHT22;30191;50.908;6.962;2022-11-20T17:04:49;8.20;99.90
44487;DHT22;30191;50.908;6.962;2022-11-20T17:07:14;8.20;99.90
44487;DHT22;30191;50.908;6.962;2022-11-20T17:09:40;8.20;99.90
44487;DHT22;30191;50.908;6.962;2022-11-20T17:12:05;8.20;99.90
44487;DHT22;30191;50.908;6.962;2022-11-20T17:14:31;8.20;99.90
44487;DHT22;30191;50.908;6.962;2022-11-20T17:16:57;8.20;99.90
44487;DHT22;30191;50.908;6.962;2022-11-20T17:19:23;8.20;99.90
44487;DHT22;30191;50.908;6.962;2022-11-20T17:21:48;8.20;99.90
44487;DHT22;30191;50.908;6.962;2022-11-20T17:24:14;8.20;99.90
44487;DHT22;30191;50.908;6.962;2022-11-20T17:26:42;8.20;99.90
44487;DHT22;30191;50.908;6.962;2022-11-20T17:31:37;8.20;99.90
44487;DHT22;30191;50.908;6.962;2022-11-20T17:34:06;8.20;99.90
44487;DHT22;30191;50.908;6.962;2022-11-20T17:36:32;8.20;99.90
44487;DHT22;30191;50.908;6.962;2022-11-20T17:38:58;8.20;99.90
44487;DHT22;30191;50.908;6.962;2022-11-20T17:41:26;8.20;99.90
44487;DHT22;30191;50.908;6.962;2022-11-20T17:44:00;8.20;99.90
44487;DHT22;30191;50.908;6.962;2022-11-20T17:46:28;8.10;99.90